Sincerity Ace — 3FFD7 — position and weather

sailwx.info

Track history (hours):
 
Tides and Currents Weather Stations Pressure Air Temp Water Temp Dewpoint Dewpoint Depression Visibility Wind Speed Wind Dir Waves Ship Positions

Sincerity Ace

Last reported at 2018-Jul-15 12:31 UTC. Time now 2018-Jul-21 21:07 UTC.
Position S 25°45' W 048°16'.

Length 200 m; draft 8.5 m.

Type: Cargo ship. MMSI: 351690000.

Date/timePositionNaut miles runAvg speedWind from/ knotsBaromVisibWave heightAir tempDewpointWater temp
2018-Jul-15 12:31S 25°45' W 048°16'0 0.1
2018-Jul-15 12:22S 25°45' W 048°16'0 0.0
2018-Jul-15 11:49S 25°45' W 048°16'0 0.0
2018-Jul-15 11:28S 25°45' W 048°16'0 0.0
2018-Jul-15 10:55S 25°45' W 048°16'0 0.0
2018-Jul-15 09:01S 25°45' W 048°16'0 0.0
2018-Jul-15 08:49S 25°45' W 048°16'0 0.0
2018-Jul-15 08:25S 25°45' W 048°16'0 0.0
2018-Jul-15 07:55S 25°45' W 048°16'0 0.0
2018-Jul-15 07:28S 25°45' W 048°16'0 0.0
2018-Jul-15 06:58S 25°45' W 048°16'0 0.0
2018-Jul-15 06:28S 25°45' W 048°16'0 0.0
2018-Jul-15 05:46S 25°45' W 048°16'0 0.0
2018-Jul-15 05:25S 25°45' W 048°16'0 0.0
2018-Jul-15 04:55S 25°45' W 048°16'0 0.0
2018-Jul-15 01:07S 25°45' W 048°16'0 0.0
2018-Jul-15 00:55S 25°45' W 048°16'0 0.8
2018-Jul-15 00:30S 25°45' W 048°16'3 6.4
2018-Jul-14 23:59S 25°45' W 048°12'1715.0
2018-Jul-14 22:53S 25°35' W 047°58'816.8
2018-Jul-14 22:26S 25°30' W 047°52'716.8
2018-Jul-14 21:59S 25°25' W 047°45'816.6
2018-Jul-14 21:31S 25°20' W 047°39'916.9
2018-Jul-14 21:00S 25°14' W 047°32'917.5
2018-Jul-14 20:30S 25°09' W 047°24'1117.5
2018-Jul-14 19:54S 25°02' W 047°15'717.1
2018-Jul-14 19:31S 24°58' W 047°09'917.4
2018-Jul-14 19:00S 24°52' W 047°02'917.4
2018-Jul-14 18:31S 24°47' W 046°54'917.2
2018-Jul-14 18:01S 24°42' W 046°47'917.3
2018-Jul-14 17:29S 24°36' W 046°39'817.3
2018-Jul-14 17:00S 24°31' W 046°32'816.8
2018-Jul-14 16:30S 24°23' W 046°29'917.1
2018-Jul-14 16:01S 24°15' W 046°26'916.6
2018-Jul-14 15:30S 24°07' W 046°23'613.4
2018-Jul-14 15:01S 24°01' W 046°20'4 6.4
2018-Jul-14 14:27S 23°59' W 046°17'1 1.1
2018-Jul-14 13:23S 23°58' W 046°18'0 0.0
2018-Jul-14 12:50S 23°58' W 046°18'0 0.0
2018-Jul-14 12:20S 23°58' W 046°18'0 0.0
2018-Jul-14 11:23S 23°58' W 046°18'0 0.0
2018-Jul-14 10:53S 23°58' W 046°18'0 0.0
2018-Jul-14 10:29S 23°58' W 046°18'0 0.0
2018-Jul-14 08:47S 23°58' W 046°18'0 0.0
2018-Jul-14 08:29S 23°58' W 046°18'0 0.0
2018-Jul-14 07:47S 23°58' W 046°18'0 0.0
2018-Jul-14 07:23S 23°58' W 046°18'0 0.0
2018-Jul-14 06:53S 23°58' W 046°18'0 0.0
2018-Jul-14 06:29S 23°58' W 046°18'0 0.0
2018-Jul-14 05:47S 23°58' W 046°18'0 0.0
2018-Jul-14 05:29S 23°58' W 046°18'0 0.0
2018-Jul-14 04:59S 23°58' W 046°18'0 0.0
2018-Jul-14 04:23S 23°58' W 046°18'0 0.0
2018-Jul-14 02:05S 23°58' W 046°18'0 0.0
2018-Jul-14 01:56S 23°58' W 046°18'0 0.0
2018-Jul-14 01:17S 23°58' W 046°18'0 0.0
2018-Jul-14 00:59S 23°58' W 046°18'0 0.0
2018-Jul-14 00:17S 23°58' W 046°18'0 0.0
2018-Jul-14 00:00S 23°58' W 046°18'2 3.0
2018-Jul-13 23:29S 23°59' W 046°17'3 6.3
2018-Jul-13 23:00S 24°00' W 046°20'510.4
2018-Jul-13 22:30S 24°05' W 046°22'3 7.0
2018-Jul-13 22:00S 24°09' W 046°22'3 5.8
2018-Jul-13 21:30S 24°11' W 046°19'3 5.5
2018-Jul-13 21:00S 24°10' W 046°16'0 0.2
2018-Jul-13 20:30S 24°10' W 046°17'0 0.0
2018-Jul-13 19:54S 24°10' W 046°17'0 0.0
2018-Jul-13 19:27S 24°10' W 046°17'0 0.0
2018-Jul-13 19:00S 24°10' W 046°17'0 0.0
2018-Jul-13 18:30S 24°10' W 046°16'0 0.0
2018-Jul-13 17:51S 24°10' W 046°17'0 0.0
2018-Jul-13 17:30S 24°10' W 046°17'0 0.0
2018-Jul-13 17:00S 24°10' W 046°17'0 0.0
2018-Jul-13 16:30S 24°10' W 046°17'0 0.0
2018-Jul-13 15:57S 24°10' W 046°17'0 0.0
2018-Jul-13 15:30S 24°10' W 046°17'0 0.0
2018-Jul-13 14:57S 24°10' W 046°17'0 0.0
2018-Jul-13 14:00S 24°10' W 046°17'0 0.0
2018-Jul-13 13:30S 24°10' W 046°17'0 0.0
2018-Jul-13 13:00S 24°10' W 046°17'0 0.0
2018-Jul-13 12:24S 24°10' W 046°17'0 0.0
2018-Jul-13 12:00S 24°10' W 046°17'0 0.0
2018-Jul-13 11:30S 24°10' W 046°17'0 0.0
2018-Jul-13 10:51S 24°10' W 046°17'0 0.0
2018-Jul-13 10:30S 24°10' W 046°17'0 0.0
2018-Jul-13 09:57S 24°10' W 046°17'0 0.0
2018-Jul-13 09:30S 24°10' W 046°17'0 0.0
2018-Jul-13 09:00S 24°10' W 046°17'0 0.0
2018-Jul-13 08:30S 24°10' W 046°17'0 0.0
2018-Jul-13 08:00S 24°10' W 046°17'0 0.0
2018-Jul-13 07:30S 24°10' W 046°17'0 0.0
2018-Jul-13 07:00S 24°10' W 046°17'0 0.1
2018-Jul-13 06:27S 24°10' W 046°17'1 2.2
2018-Jul-13 06:00S 24°11' W 046°18'3 6.8
2018-Jul-13 05:30S 24°12' W 046°21'2 4.2
2018-Jul-13 05:00S 24°14' W 046°21'510.9
2018-Jul-13 04:30S 24°18' W 046°17'714.4
2018-Jul-13 04:00S 24°23' W 046°11'  
Track history (hours):
 
Tides and Currents Weather Stations Pressure Air Temp Water Temp Dewpoint Dewpoint Depression Visibility Wind Speed Wind Dir Waves Ship Positions

Sincerity Ace

Last reported at 2018-Jul-15 12:31 UTC. Time now 2018-Jul-21 21:07 UTC.
Position S 25°45' W 048°16'.

Length 200 m; draft 8.5 m.

Type: Cargo ship. MMSI: 351690000.

Date/timePositionNaut miles runAvg speedWind from/ knotsBaromVisibWave heightAir tempDewpointWater temp
2018-Jul-15 12:31S 25°45' W 048°16'0 0.1
2018-Jul-15 12:22S 25°45' W 048°16'0 0.0
2018-Jul-15 11:49S 25°45' W 048°16'0 0.0
2018-Jul-15 11:28S 25°45' W 048°16'0 0.0
2018-Jul-15 10:55S 25°45' W 048°16'0 0.0
2018-Jul-15 09:01S 25°45' W 048°16'0 0.0
2018-Jul-15 08:49S 25°45' W 048°16'0 0.0
2018-Jul-15 08:25S 25°45' W 048°16'0 0.0
2018-Jul-15 07:55S 25°45' W 048°16'0 0.0
2018-Jul-15 07:28S 25°45' W 048°16'0 0.0
2018-Jul-15 06:58S 25°45' W 048°16'0 0.0
2018-Jul-15 06:28S 25°45' W 048°16'0 0.0
2018-Jul-15 05:46S 25°45' W 048°16'0 0.0
2018-Jul-15 05:25S 25°45' W 048°16'0 0.0
2018-Jul-15 04:55S 25°45' W 048°16'0 0.0
2018-Jul-15 01:07S 25°45' W 048°16'0 0.0
2018-Jul-15 00:55S 25°45' W 048°16'0 0.8
2018-Jul-15 00:30S 25°45' W 048°16'3 6.4
2018-Jul-14 23:59S 25°45' W 048°12'1715.0
2018-Jul-14 22:53S 25°35' W 047°58'816.8
2018-Jul-14 22:26S 25°30' W 047°52'716.8
2018-Jul-14 21:59S 25°25' W 047°45'816.6
2018-Jul-14 21:31S 25°20' W 047°39'916.9
2018-Jul-14 21:00S 25°14' W 047°32'917.5
2018-Jul-14 20:30S 25°09' W 047°24'1117.5
2018-Jul-14 19:54S 25°02' W 047°15'717.1
2018-Jul-14 19:31S 24°58' W 047°09'917.4
2018-Jul-14 19:00S 24°52' W 047°02'917.4
2018-Jul-14 18:31S 24°47' W 046°54'917.2
2018-Jul-14 18:01S 24°42' W 046°47'917.3
2018-Jul-14 17:29S 24°36' W 046°39'817.3
2018-Jul-14 17:00S 24°31' W 046°32'816.8
2018-Jul-14 16:30S 24°23' W 046°29'917.1
2018-Jul-14 16:01S 24°15' W 046°26'916.6
2018-Jul-14 15:30S 24°07' W 046°23'613.4
2018-Jul-14 15:01S 24°01' W 046°20'4 6.4
2018-Jul-14 14:27S 23°59' W 046°17'1 1.1
2018-Jul-14 13:23S 23°58' W 046°18'0 0.0
2018-Jul-14 12:50S 23°58' W 046°18'0 0.0
2018-Jul-14 12:20S 23°58' W 046°18'0 0.0
2018-Jul-14 11:23S 23°58' W 046°18'0 0.0
2018-Jul-14 10:53S 23°58' W 046°18'0 0.0
2018-Jul-14 10:29S 23°58' W 046°18'0 0.0
2018-Jul-14 08:47S 23°58' W 046°18'0 0.0
2018-Jul-14 08:29S 23°58' W 046°18'0 0.0
2018-Jul-14 07:47S 23°58' W 046°18'0 0.0
2018-Jul-14 07:23S 23°58' W 046°18'0 0.0
2018-Jul-14 06:53S 23°58' W 046°18'0 0.0
2018-Jul-14 06:29S 23°58' W 046°18'0 0.0
2018-Jul-14 05:47S 23°58' W 046°18'0 0.0
2018-Jul-14 05:29S 23°58' W 046°18'0 0.0
2018-Jul-14 04:59S 23°58' W 046°18'0 0.0
2018-Jul-14 04:23S 23°58' W 046°18'0 0.0
2018-Jul-14 02:05S 23°58' W 046°18'0 0.0
2018-Jul-14 01:56S 23°58' W 046°18'0 0.0
2018-Jul-14 01:17S 23°58' W 046°18'0 0.0
2018-Jul-14 00:59S 23°58' W 046°18'0 0.0
2018-Jul-14 00:17S 23°58' W 046°18'0 0.0
2018-Jul-14 00:00S 23°58' W 046°18'2 3.0
2018-Jul-13 23:29S 23°59' W 046°17'3 6.3
2018-Jul-13 23:00S 24°00' W 046°20'510.4
2018-Jul-13 22:30S 24°05' W 046°22'3 7.0
2018-Jul-13 22:00S 24°09' W 046°22'3 5.8
2018-Jul-13 21:30S 24°11' W 046°19'3 5.5
2018-Jul-13 21:00S 24°10' W 046°16'0 0.2
2018-Jul-13 20:30S 24°10' W 046°17'0 0.0
2018-Jul-13 19:54S 24°10' W 046°17'0 0.0
2018-Jul-13 19:27S 24°10' W 046°17'0 0.0
2018-Jul-13 19:00S 24°10' W 046°17'0 0.0
2018-Jul-13 18:30S 24°10' W 046°16'0 0.0
2018-Jul-13 17:51S 24°10' W 046°17'0 0.0
2018-Jul-13 17:30S 24°10' W 046°17'0 0.0
2018-Jul-13 17:00S 24°10' W 046°17'0 0.0
2018-Jul-13 16:30S 24°10' W 046°17'0 0.0
2018-Jul-13 15:57S 24°10' W 046°17'0 0.0
2018-Jul-13 15:30S 24°10' W 046°17'0 0.0
2018-Jul-13 14:57S 24°10' W 046°17'0 0.0
2018-Jul-13 14:00S 24°10' W 046°17'0 0.0
2018-Jul-13 13:30S 24°10' W 046°17'0 0.0
2018-Jul-13 13:00S 24°10' W 046°17'0 0.0
2018-Jul-13 12:24S 24°10' W 046°17'0 0.0
2018-Jul-13 12:00S 24°10' W 046°17'0 0.0
2018-Jul-13 11:30S 24°10' W 046°17'0 0.0
2018-Jul-13 10:51S 24°10' W 046°17'0 0.0
2018-Jul-13 10:30S 24°10' W 046°17'0 0.0
2018-Jul-13 09:57S 24°10' W 046°17'0 0.0
2018-Jul-13 09:30S 24°10' W 046°17'0 0.0
2018-Jul-13 09:00S 24°10' W 046°17'0 0.0
2018-Jul-13 08:30S 24°10' W 046°17'0 0.0
2018-Jul-13 08:00S 24°10' W 046°17'0 0.0
2018-Jul-13 07:30S 24°10' W 046°17'0 0.0
2018-Jul-13 07:00S 24°10' W 046°17'0 0.1
2018-Jul-13 06:27S 24°10' W 046°17'1 2.2
2018-Jul-13 06:00S 24°11' W 046°18'3 6.8
2018-Jul-13 05:30S 24°12' W 046°21'2 4.2
2018-Jul-13 05:00S 24°14' W 046°21'510.9
2018-Jul-13 04:30S 24°18' W 046°17'714.4
2018-Jul-13 04:00S 24°23' W 046°11'  

Dump ship's entire track history